createdAt,value
2023-05-05T00:02:21.762Z,11.30
2023-05-05T00:04:49.791Z,13.77
2023-05-05T00:07:17.565Z,13.90
2023-05-05T00:09:45.565Z,10.90
2023-05-05T00:12:13.538Z,12.02
2023-05-05T00:14:41.905Z,11.77
2023-05-05T00:17:10.031Z,14.80
2023-05-05T00:19:38.009Z,13.77
2023-05-05T00:22:06.216Z,12.98
2023-05-05T00:24:34.118Z,12.95
2023-05-05T00:27:02.392Z,11.85
2023-05-05T00:29:30.742Z,12.90
2023-05-05T00:31:58.612Z,11.68
2023-05-05T00:34:26.406Z,13.68
2023-05-05T00:36:54.922Z,13.20
2023-05-05T00:39:23.553Z,13.43
2023-05-05T00:41:51.653Z,11.57
2023-05-05T00:44:37.165Z,12.15
2023-05-05T00:47:06.034Z,13.38
2023-05-05T00:49:35.174Z,12.82
2023-05-05T00:52:04.876Z,15.98
2023-05-05T00:54:36.514Z,15.52
2023-05-05T00:57:05.519Z,14.63
2023-05-05T00:59:34.345Z,12.02
2023-05-05T01:02:02.840Z,13.20
2023-05-05T01:04:30.733Z,14.23
2023-05-05T01:07:14.989Z,11.48
2023-05-05T01:10:19.685Z,14.15
2023-05-05T01:13:02.331Z,13.48
2023-05-05T01:15:33.318Z,11.90
2023-05-05T01:18:20.135Z,14.13
2023-05-05T01:20:57.908Z,14.88
2023-05-05T01:24:01.338Z,15.18
2023-05-05T01:26:55.709Z,16.33
2023-05-05T01:29:42.229Z,15.38
2023-05-05T01:32:22.358Z,16.83
2023-05-05T01:34:59.274Z,15.15
2023-05-05T01:37:37.249Z,13.02
2023-05-05T01:40:08.484Z,12.65
2023-05-05T01:42:38.433Z,12.75
2023-05-05T01:45:08.762Z,14.52
2023-05-05T01:47:38.547Z,13.85
2023-05-05T01:50:08.675Z,12.52
2023-05-05T01:52:40.374Z,15.38
2023-05-05T01:55:10.552Z,14.60
2023-05-05T01:57:41.759Z,12.88
2023-05-05T02:00:11.676Z,14.48
2023-05-05T02:02:46.818Z,12.93
2023-05-05T02:05:17.216Z,13.73
2023-05-05T02:07:47.078Z,13.82
2023-05-05T02:10:15.449Z,12.10
2023-05-05T02:12:46.876Z,12.00
2023-05-05T02:15:16.722Z,15.65
2023-05-05T02:17:46.580Z,14.90
2023-05-05T02:20:16.373Z,13.35
2023-05-05T02:22:44.292Z,14.98
2023-05-05T02:25:12.332Z,12.52
2023-05-05T02:27:43.382Z,14.75
2023-05-05T02:30:15.943Z,13.70
2023-05-05T02:32:56.057Z,15.07
2023-05-05T02:35:35.498Z,13.18
2023-05-05T02:38:06.604Z,12.65
2023-05-05T02:40:42.514Z,15.60
2023-05-05T02:43:17.066Z,14.57
2023-05-05T02:45:45.196Z,12.05
2023-05-05T02:48:14.366Z,12.63
2023-05-05T02:50:42.169Z,15.30
2023-05-05T02:53:27.826Z,15.68
2023-05-05T02:56:28.797Z,14.82
2023-05-05T02:59:20.231Z,12.85
2023-05-05T03:01:59.425Z,13.27
2023-05-05T03:04:35.435Z,13.60
2023-05-05T03:07:11.880Z,15.25
2023-05-05T03:09:45.932Z,15.38
2023-05-05T03:12:21.383Z,17.30
2023-05-05T03:15:10.584Z,14.90
2023-05-05T03:17:42.097Z,14.98
2023-05-05T03:20:11.364Z,15.55
2023-05-05T03:22:42.184Z,14.70
2023-05-05T03:25:13.864Z,16.58
2023-05-05T03:27:42.085Z,14.05
2023-05-05T03:30:12.919Z,16.73
2023-05-05T03:32:48.645Z,17.15
2023-05-05T03:35:17.220Z,15.20
2023-05-05T03:37:45.292Z,14.10
2023-05-05T03:40:15.357Z,15.68
2023-05-05T03:42:43.246Z,14.30
2023-05-05T03:45:11.222Z,17.48
2023-05-05T03:47:40.413Z,15.60
2023-05-05T03:50:09.469Z,15.95
2023-05-05T03:52:37.708Z,17.70
2023-05-05T03:55:07.063Z,14.30
2023-05-05T03:57:35.082Z,15.93
2023-05-05T04:00:03.128Z,15.10
2023-05-05T04:02:42.262Z,14.73
2023-05-05T04:05:13.027Z,16.08
2023-05-05T04:07:40.953Z,16.67
2023-05-05T04:10:09.416Z,15.48
2023-05-05T04:12:37.640Z,15.52
2023-05-05T04:15:07.048Z,16.45
2023-05-05T04:17:35.382Z,16.83
2023-05-05T04:20:04.967Z,17.35
2023-05-05T04:22:34.402Z,16.42
2023-05-05T04:25:02.875Z,16.48
2023-05-05T04:27:30.823Z,15.23
2023-05-05T04:30:00.565Z,18.33
2023-05-05T04:32:28.505Z,17.33
2023-05-05T04:34:56.694Z,19.80
2023-05-05T04:37:25.979Z,17.08
2023-05-05T04:39:54.194Z,15.10
2023-05-05T04:42:22.485Z,15.88
2023-05-05T04:44:50.818Z,15.25
2023-05-05T04:47:18.932Z,14.70
2023-05-05T04:49:46.942Z,15.65
2023-05-05T04:52:15.048Z,14.98
2023-05-05T04:54:42.954Z,16.35
2023-05-05T04:57:10.765Z,15.35
2023-05-05T04:59:38.640Z,14.20
2023-05-05T05:02:06.677Z,13.65
2023-05-05T05:04:34.645Z,12.30
2023-05-05T05:07:02.603Z,13.05
2023-05-05T05:09:30.635Z,13.98
2023-05-05T05:12:03.301Z,12.38
2023-05-05T05:14:37.048Z,13.15
2023-05-05T05:17:05.649Z,12.90
2023-05-05T05:19:34.852Z,14.02
2023-05-05T05:22:03.666Z,16.60
2023-05-05T05:24:35.004Z,14.20
2023-05-05T05:27:03.498Z,15.25
2023-05-05T05:29:31.500Z,15.65
2023-05-05T05:32:01.197Z,16.50
2023-05-05T05:34:29.752Z,11.82
2023-05-05T05:36:58.163Z,14.18
2023-05-05T05:39:26.061Z,14.90
2023-05-05T05:41:54.103Z,17.23
2023-05-05T05:44:22.100Z,12.40
2023-05-05T05:46:49.996Z,13.85
2023-05-05T05:49:18.734Z,12.77
2023-05-05T05:51:46.892Z,14.13
2023-05-05T05:54:14.914Z,12.75
2023-05-05T05:56:43.829Z,12.23
2023-05-05T05:59:12.714Z,15.98
2023-05-05T06:01:41.895Z,14.60
2023-05-05T06:04:10.082Z,11.35
2023-05-05T06:06:39.411Z,13.40
2023-05-05T06:09:07.273Z,11.32
2023-05-05T06:11:37.176Z,13.43
2023-05-05T06:14:05.151Z,13.98
2023-05-05T06:16:33.379Z,13.32
2023-05-05T06:19:09.699Z,13.50
2023-05-05T06:21:38.597Z,12.75
2023-05-05T06:24:06.842Z,13.32
2023-05-05T06:26:36.248Z,11.65
2023-05-05T06:29:04.328Z,11.88
2023-05-05T06:31:32.303Z,10.80
2023-05-05T06:34:00.199Z,12.82
2023-05-05T06:36:28.451Z,12.55
2023-05-05T06:38:56.425Z,12.50
2023-05-05T06:41:24.628Z,14.23
2023-05-05T06:43:52.463Z,10.15
2023-05-05T06:46:20.367Z,9.30
2023-05-05T06:48:48.317Z,13.73
2023-05-05T06:51:16.448Z,11.27
2023-05-05T06:53:44.251Z,12.18
2023-05-05T06:56:12.127Z,11.98
2023-05-05T06:58:40.267Z,10.73
2023-05-05T07:01:08.786Z,13.68
2023-05-05T07:03:36.829Z,12.30
2023-05-05T07:06:05.030Z,13.60
2023-05-05T07:08:32.885Z,14.85
2023-05-05T07:11:01.385Z,15.27
2023-05-05T07:13:29.262Z,15.85
2023-05-05T07:15:57.172Z,12.30
2023-05-05T07:18:25.153Z,13.35
2023-05-05T07:20:53.049Z,15.43
2023-05-05T07:23:20.901Z,17.05
2023-05-05T07:25:49.220Z,15.30
2023-05-05T07:28:17.153Z,12.80
2023-05-05T07:30:44.975Z,14.77
2023-05-05T07:33:12.915Z,11.27
2023-05-05T07:35:41.050Z,11.90
2023-05-05T07:38:10.799Z,13.70
2023-05-05T07:40:38.913Z,10.50
2023-05-05T07:43:07.077Z,10.75
2023-05-05T07:45:34.919Z,14.65
2023-05-05T07:48:02.933Z,11.40
2023-05-05T07:50:30.944Z,11.90
2023-05-05T07:53:10.719Z,10.80
2023-05-05T07:55:41.630Z,10.93
2023-05-05T07:58:11.292Z,11.48
2023-05-05T08:00:39.953Z,11.13
2023-05-05T08:03:11.363Z,13.05
2023-05-05T08:05:39.974Z,11.35
2023-05-05T08:08:08.202Z,13.73
2023-05-05T08:10:36.349Z,10.32
2023-05-05T08:13:04.292Z,15.80
2023-05-05T08:15:31.994Z,13.38
2023-05-05T08:18:00.012Z,15.27
2023-05-05T08:20:29.675Z,14.43
2023-05-05T08:22:57.595Z,14.80
2023-05-05T08:25:27.130Z,10.13
2023-05-05T08:27:55.079Z,13.32
2023-05-05T08:30:28.938Z,11.23
2023-05-05T08:32:57.047Z,12.10
2023-05-05T08:35:25.252Z,11.43
2023-05-05T08:37:53.314Z,11.25
2023-05-05T08:40:29.506Z,10.73
2023-05-05T08:42:57.534Z,11.90
2023-05-05T08:45:28.288Z,10.25
2023-05-05T08:48:05.291Z,10.57
2023-05-05T08:50:33.447Z,10.88
2023-05-05T08:53:11.076Z,8.85
2023-05-05T08:55:52.443Z,9.55
2023-05-05T08:58:22.496Z,10.88
2023-05-05T09:00:50.952Z,10.10
2023-05-05T09:03:19.015Z,7.20
2023-05-05T09:05:47.697Z,8.68
2023-05-05T09:08:15.628Z,9.18
2023-05-05T09:10:44.938Z,10.85
2023-05-05T09:13:13.415Z,7.72
2023-05-05T09:15:42.278Z,6.32
2023-05-05T09:18:12.373Z,7.35
2023-05-05T09:20:41.464Z,5.78
2023-05-05T09:23:12.396Z,8.15
2023-05-05T09:25:44.936Z,9.23
2023-05-05T09:28:17.944Z,7.00
2023-05-05T09:30:47.127Z,4.88
2023-05-05T09:33:28.644Z,6.47
2023-05-05T09:35:56.680Z,6.90
2023-05-05T09:38:25.668Z,7.18
2023-05-05T09:40:54.788Z,8.07
2023-05-05T09:43:23.862Z,4.93
2023-05-05T09:45:52.063Z,11.10
2023-05-05T09:48:27.327Z,32.38
2023-05-05T09:50:56.383Z,8.45
2023-05-05T09:53:25.695Z,12.45
2023-05-05T09:55:58.256Z,5.43
2023-05-05T09:58:28.632Z,8.07
2023-05-05T10:00:59.004Z,5.65
2023-05-05T10:03:27.015Z,6.30
2023-05-05T10:05:56.997Z,5.57
2023-05-05T10:08:30.667Z,5.57
2023-05-05T10:11:07.363Z,8.43
2023-05-05T10:13:37.766Z,8.02
2023-05-05T10:16:09.822Z,8.70
2023-05-05T10:18:44.559Z,7.50
2023-05-05T10:21:14.054Z,8.55
2023-05-05T10:24:02.249Z,8.93
2023-05-05T10:26:37.690Z,9.05
2023-05-05T10:29:11.693Z,6.68
2023-05-05T10:34:50.046Z,6.07
2023-05-05T10:37:20.039Z,5.57
2023-05-05T10:39:50.260Z,8.50
2023-05-05T10:42:20.878Z,5.15
2023-05-05T10:44:49.429Z,6.43
2023-05-05T10:47:19.499Z,4.97
2023-05-05T10:50:21.725Z,5.57
2023-05-05T10:53:08.361Z,6.60
2023-05-05T10:55:39.223Z,8.15
2023-05-05T10:58:07.319Z,6.20
2023-05-05T11:00:38.327Z,6.82
2023-05-05T11:03:18.710Z,7.60
2023-05-05T11:06:08.015Z,5.03
2023-05-05T11:08:38.317Z,8.23
2023-05-05T11:11:06.972Z,5.35
2023-05-05T11:13:34.933Z,6.93
2023-05-05T11:16:02.975Z,6.15
2023-05-05T11:18:40.790Z,5.70
2023-05-05T11:21:17.442Z,6.25
2023-05-05T11:23:50.451Z,6.40
2023-05-05T11:26:53.837Z,7.85
2023-05-05T11:29:21.715Z,5.30
2023-05-05T11:32:12.626Z,5.53
2023-05-05T11:34:50.978Z,5.38
2023-05-05T11:37:24.662Z,5.60
2023-05-05T11:40:16.924Z,5.50
2023-05-05T11:42:44.934Z,5.10
2023-05-05T11:45:24.190Z,5.78
2023-05-05T11:47:52.329Z,6.10
2023-05-05T11:50:23.564Z,5.32
2023-05-05T11:52:51.605Z,7.22
2023-05-05T11:55:21.886Z,5.07
2023-05-05T11:57:49.877Z,6.05
2023-05-05T12:00:18.154Z,4.90
2023-05-05T12:02:46.314Z,10.80
2023-05-05T12:05:20.027Z,4.13
2023-05-05T12:07:48.914Z,7.07
2023-05-05T12:10:23.848Z,5.13
2023-05-05T12:12:55.346Z,4.78
2023-05-05T12:15:31.639Z,4.32
2023-05-05T12:18:02.363Z,7.18
2023-05-05T12:20:33.062Z,4.53
2023-05-05T12:23:04.759Z,4.88
2023-05-05T12:25:38.325Z,5.80
2023-05-05T12:28:08.841Z,4.22
2023-05-05T12:30:37.242Z,5.72
2023-05-05T12:33:07.400Z,4.53
2023-05-05T12:35:36.100Z,4.88
2023-05-05T12:38:04.258Z,5.18
2023-05-05T12:40:50.179Z,6.30
2023-05-05T12:43:35.160Z,4.47
2023-05-05T12:46:03.344Z,5.82
2023-05-05T12:48:31.876Z,4.75
2023-05-05T12:51:27.288Z,4.30
2023-05-05T12:54:05.453Z,4.65
2023-05-05T12:56:40.932Z,4.05
2023-05-05T12:59:10.828Z,8.15
2023-05-05T13:01:52.752Z,8.27
2023-05-05T13:04:23.276Z,4.80
2023-05-05T13:07:18.566Z,5.05
2023-05-05T13:09:51.314Z,5.18
2023-05-05T13:12:26.898Z,5.28
2023-05-05T13:14:56.100Z,4.90
2023-05-05T13:17:24.247Z,5.00
2023-05-05T13:19:52.471Z,5.63
2023-05-05T13:22:20.884Z,7.00
2023-05-05T13:24:52.308Z,5.07
2023-05-05T13:27:21.994Z,5.72
2023-05-05T13:29:50.281Z,6.47
2023-05-05T13:32:18.345Z,4.88
2023-05-05T13:34:46.312Z,7.05
2023-05-05T13:37:14.904Z,4.70
2023-05-05T13:39:43.458Z,4.72
2023-05-05T13:42:11.384Z,3.75
2023-05-05T13:44:39.945Z,5.50
2023-05-05T13:47:07.943Z,4.95
2023-05-05T13:49:36.063Z,5.53
2023-05-05T13:52:04.036Z,7.53
2023-05-05T13:54:31.865Z,4.78
2023-05-05T13:57:00.221Z,6.07
2023-05-05T13:59:28.444Z,9.05
2023-05-05T14:01:56.311Z,6.03
2023-05-05T14:04:24.344Z,4.82
2023-05-05T14:06:53.631Z,3.88
2023-05-05T14:09:21.677Z,4.30
2023-05-05T14:11:49.548Z,3.20
2023-05-05T14:14:18.248Z,5.55
2023-05-05T14:16:48.660Z,4.28
2023-05-05T14:19:18.088Z,4.50
2023-05-05T14:21:46.175Z,7.30
2023-05-05T14:24:14.247Z,5.20
2023-05-05T14:26:42.226Z,4.30
2023-05-05T14:29:10.188Z,4.35
2023-05-05T14:31:38.260Z,4.13
2023-05-05T14:34:06.216Z,4.40
2023-05-05T14:36:34.128Z,3.97
2023-05-05T14:39:02.175Z,6.78
2023-05-05T14:41:30.519Z,7.88
2023-05-05T14:43:59.486Z,6.97
2023-05-05T14:46:28.124Z,3.88
2023-05-05T14:48:56.653Z,3.92
2023-05-05T14:51:26.567Z,3.00
2023-05-05T14:53:55.140Z,4.05
2023-05-05T14:56:24.780Z,2.85
2023-05-05T14:58:53.367Z,5.00
2023-05-05T15:01:21.450Z,2.85
2023-05-05T15:03:49.500Z,3.42
2023-05-05T15:06:17.935Z,5.18
2023-05-05T15:08:46.017Z,3.47
2023-05-05T15:11:14.107Z,4.13
2023-05-05T15:13:42.100Z,3.47
2023-05-05T15:16:10.125Z,3.17
2023-05-05T15:18:38.536Z,3.78
2023-05-05T15:21:06.545Z,5.47
2023-05-05T15:23:34.984Z,4.95
2023-05-05T15:26:04.247Z,4.07
2023-05-05T15:28:32.317Z,3.40
2023-05-05T15:31:03.554Z,3.92
2023-05-05T15:33:31.695Z,3.45
2023-05-05T15:35:59.713Z,3.40
2023-05-05T15:38:29.461Z,7.25
2023-05-05T15:40:57.499Z,6.00
2023-05-05T15:43:26.089Z,4.43
2023-05-05T15:45:54.521Z,3.47
2023-05-05T15:48:22.962Z,3.90
2023-05-05T15:50:51.893Z,3.90
2023-05-05T15:53:21.138Z,6.18
2023-05-05T15:55:49.062Z,4.82
2023-05-05T16:02:55.276Z,4.63
2023-05-05T16:06:02.872Z,4.47
2023-05-05T16:12:02.920Z,7.30
2023-05-05T16:14:35.583Z,5.95
2023-05-05T16:17:04.002Z,7.18
2023-05-05T16:19:32.075Z,5.72
2023-05-05T16:22:00.184Z,5.30
2023-05-05T16:24:28.764Z,5.20
2023-05-05T16:26:56.761Z,5.57
2023-05-05T16:29:24.790Z,5.85
2023-05-05T16:31:55.733Z,3.75
2023-05-05T16:34:23.689Z,5.10
2023-05-05T16:36:51.837Z,5.88
2023-05-05T16:39:20.198Z,5.65
2023-05-05T16:41:48.699Z,5.30
2023-05-05T16:47:20.691Z,4.53
2023-05-05T16:49:48.802Z,4.22
2023-05-05T16:52:16.740Z,5.40
2023-05-05T16:54:45.037Z,5.90
2023-05-05T16:57:13.938Z,7.78
2023-05-05T16:59:42.166Z,5.22
2023-05-05T17:02:10.379Z,5.03
2023-05-05T17:04:38.419Z,5.78
2023-05-05T17:07:06.678Z,5.35
2023-05-05T17:09:34.866Z,5.80
2023-05-05T17:12:04.750Z,6.35
2023-05-05T17:14:34.067Z,6.05
2023-05-05T17:17:02.065Z,5.50
2023-05-05T17:19:30.110Z,7.03
2023-05-05T17:21:58.232Z,3.97
2023-05-05T17:24:26.238Z,6.95
2023-05-05T17:26:54.576Z,4.32
2023-05-05T17:29:23.890Z,6.18
2023-05-05T17:31:54.558Z,7.78
2023-05-05T17:34:22.772Z,3.90
2023-05-05T17:36:51.114Z,6.10
2023-05-05T17:39:19.103Z,5.63
2023-05-05T17:41:47.346Z,8.75
2023-05-05T17:44:15.534Z,3.95
2023-05-05T17:46:44.119Z,5.05
2023-05-05T17:49:12.588Z,3.72
2023-05-05T17:51:40.875Z,6.43
2023-05-05T17:54:09.063Z,4.60
2023-05-05T17:56:38.430Z,5.15
2023-05-05T17:59:06.559Z,4.43
2023-05-05T18:01:35.589Z,4.45
2023-05-05T18:04:04.131Z,4.78
2023-05-05T18:06:32.585Z,3.33
2023-05-05T18:09:01.147Z,5.00
2023-05-05T18:11:31.276Z,3.58
2023-05-05T18:14:00.140Z,5.35
2023-05-05T18:16:28.034Z,4.70
2023-05-05T18:18:56.514Z,3.58
2023-05-05T18:21:24.851Z,3.40
2023-05-05T18:23:57.305Z,3.47
2023-05-05T18:26:29.935Z,3.35
2023-05-05T18:28:58.179Z,6.78
2023-05-05T18:31:27.536Z,4.10
2023-05-05T18:33:55.728Z,5.25
2023-05-05T18:36:23.868Z,4.60
2023-05-05T18:38:52.149Z,5.95
2023-05-05T18:41:20.498Z,7.53
2023-05-05T18:43:49.343Z,3.85
2023-05-05T18:46:17.425Z,5.55
2023-05-05T18:48:45.773Z,3.42
2023-05-05T18:51:14.137Z,3.47
2023-05-05T18:53:42.058Z,8.73
2023-05-05T18:56:10.104Z,5.28
2023-05-05T18:58:38.361Z,3.80
2023-05-05T19:01:06.778Z,4.63
2023-05-05T19:03:35.075Z,4.30
2023-05-05T19:06:12.661Z,4.93
2023-05-05T19:08:41.410Z,5.75
2023-05-05T19:11:09.986Z,5.00
2023-05-05T19:16:13.442Z,7.55
2023-05-05T19:18:42.324Z,7.45
2023-05-05T19:21:15.320Z,5.95
2023-05-05T19:23:45.635Z,7.50
2023-05-05T19:26:14.994Z,4.63
2023-05-05T19:28:43.822Z,7.82
2023-05-05T19:31:12.379Z,5.70
2023-05-05T19:33:45.304Z,5.65
2023-05-05T19:36:13.606Z,5.20
2023-05-05T19:38:44.623Z,7.03
2023-05-05T19:41:13.044Z,5.45
2023-05-05T19:43:40.900Z,5.43
2023-05-05T19:46:09.280Z,6.90
2023-05-05T19:48:38.750Z,5.75
2023-05-05T19:51:07.798Z,6.53
2023-05-05T19:53:36.893Z,4.30
2023-05-05T19:56:05.351Z,8.02
2023-05-05T19:58:54.962Z,4.13
2023-05-05T20:01:23.233Z,6.38
2023-05-05T20:03:52.973Z,4.38
2023-05-05T20:06:21.430Z,7.22
2023-05-05T20:08:49.528Z,6.70
2023-05-05T20:11:18.288Z,5.97
2023-05-05T20:13:46.400Z,10.07
2023-05-05T20:16:15.489Z,6.30
2023-05-05T20:18:44.165Z,6.55
2023-05-05T20:21:12.210Z,7.05
2023-05-05T20:23:40.211Z,6.65
2023-05-05T20:26:10.104Z,6.47
2023-05-05T20:28:40.422Z,5.57
2023-05-05T20:31:11.177Z,5.88
2023-05-05T20:33:40.288Z,4.70
2023-05-05T20:36:16.470Z,4.50
2023-05-05T20:38:44.938Z,5.05
2023-05-05T20:41:13.253Z,6.13
2023-05-05T20:43:41.188Z,5.35
2023-05-05T20:46:13.392Z,5.95
2023-05-05T20:48:42.896Z,7.28
2023-05-05T20:51:11.588Z,9.23
2023-05-05T20:53:40.053Z,4.57
2023-05-05T20:56:09.200Z,4.55
2023-05-05T20:58:37.923Z,5.50
2023-05-05T21:01:05.865Z,4.93
2023-05-05T21:03:33.995Z,6.28
2023-05-05T21:06:02.154Z,4.38
2023-05-05T21:08:30.893Z,4.82
2023-05-05T21:10:58.868Z,10.50
2023-05-05T21:13:26.905Z,5.22
2023-05-05T21:15:54.772Z,4.68
2023-05-05T21:18:22.938Z,6.05
2023-05-05T21:20:51.015Z,6.00
2023-05-05T21:23:19.003Z,6.15
2023-05-05T21:25:46.969Z,6.07
2023-05-05T21:28:14.883Z,4.70
2023-05-05T21:30:42.752Z,5.03
2023-05-05T21:33:13.110Z,5.28
2023-05-05T21:35:41.128Z,6.45
2023-05-05T21:38:09.159Z,6.10
2023-05-05T21:40:36.984Z,6.53
2023-05-05T21:43:04.849Z,7.80
2023-05-05T21:45:32.707Z,13.65
2023-05-05T21:48:01.043Z,9.55
2023-05-05T21:50:29.547Z,7.53
2023-05-05T21:52:58.024Z,9.38
2023-05-05T21:55:25.945Z,10.13
2023-05-05T21:57:53.853Z,6.35
2023-05-05T22:00:21.771Z,6.80
2023-05-05T22:02:49.691Z,11.48
2023-05-05T22:05:17.621Z,11.38
2023-05-05T22:07:45.741Z,9.75
2023-05-05T22:10:13.637Z,12.52
2023-05-05T22:12:41.552Z,7.65
2023-05-05T22:15:10.278Z,8.27
2023-05-05T22:17:38.461Z,9.98
2023-05-05T22:20:07.230Z,10.05
2023-05-05T22:22:35.327Z,9.88
2023-05-05T22:25:03.175Z,9.80
2023-05-05T22:27:31.249Z,9.90
2023-05-05T22:29:59.634Z,7.10
2023-05-05T22:32:27.530Z,9.95
2023-05-05T22:34:55.503Z,8.27
2023-05-05T22:37:23.840Z,13.32
2023-05-05T22:39:51.668Z,7.65
2023-05-05T22:42:19.517Z,10.90
2023-05-05T22:44:47.524Z,10.32
2023-05-05T22:47:15.448Z,10.07
2023-05-05T22:49:43.391Z,11.85
2023-05-05T22:52:11.749Z,7.65
2023-05-05T22:54:39.505Z,7.95
2023-05-05T22:57:07.303Z,11.32
2023-05-05T22:59:35.179Z,10.35
2023-05-05T23:02:03.017Z,10.60
2023-05-05T23:04:30.879Z,8.40
2023-05-05T23:06:58.804Z,11.88
2023-05-05T23:09:26.748Z,10.02
2023-05-05T23:11:54.654Z,9.48
2023-05-05T23:14:22.459Z,9.70
2023-05-05T23:16:50.645Z,8.20
2023-05-05T23:19:18.597Z,13.02
2023-05-05T23:21:53.241Z,8.00
2023-05-05T23:24:22.388Z,8.48
2023-05-05T23:26:52.057Z,10.20
2023-05-05T23:29:20.811Z,9.65
2023-05-05T23:31:48.824Z,9.30
2023-05-05T23:34:16.782Z,11.75
2023-05-05T23:36:44.658Z,9.48
2023-05-05T23:39:12.550Z,9.25
2023-05-05T23:41:40.318Z,9.82
2023-05-05T23:44:08.212Z,7.75
2023-05-05T23:46:36.194Z,8.80
2023-05-05T23:49:04.069Z,11.52
2023-05-05T23:51:32.875Z,11.57
2023-05-05T23:54:00.702Z,12.60
2023-05-05T23:56:28.577Z,11.35
2023-05-05T23:58:56.459Z,15.68
